KCCR

Buchanan Field Airport

Concord, California, USA
METAR KCCR 271153Z AUTO 17006KT 10SM CLR 13/09 A2999 RMK AO2 SLP141 T01330094 10156 20133 58002
Observed Flight Rules
May-27 @ 11:53 UTC (11 minutes ago) Visual Flight Rules
Wind Visibility Clouds
170° at 6 knots 10 miles
  • Clear skies
Temperatures Readings
Current 13°C / 55°F
Dewpoint 9°C / 48°F
Humidity 77%
Altimeter 29.99" Hg
Pressure 1014.1 hPa
Elevation 11
METAR KCCR 271153Z AUTO 17006KT 10SM CLR 13/09 A2999 RMK AO2 SLP141 T01330094 10156 20133 58002
Observed Flight Rules
May-27 @ 11:53 UTC
(11 minutes ago)
VFR
Wind Visibility
170° at 6 knots 10 miles
Clouds
  • Clear skies
Temperature Dewpoint
13°C / 55°F 9°C / 48°F
Humidity Altimeter Pressure
77% 29.99" Hg 1014.1 hPa